createdAt,value
2019-05-28T00:02:11.274Z,23.90
2019-05-28T00:04:37.550Z,17.00
2019-05-28T00:07:04.278Z,17.70
2019-05-28T00:09:30.455Z,18.83
2019-05-28T00:11:56.766Z,10.97
2019-05-28T00:14:25.618Z,11.40
2019-05-28T00:16:51.786Z,8.33
2019-05-28T00:19:17.974Z,4.90
2019-05-28T00:21:44.198Z,4.67
2019-05-28T00:24:10.626Z,4.87
2019-05-28T00:26:36.987Z,6.33
2019-05-28T00:29:03.263Z,4.60
2019-05-28T00:31:29.443Z,12.90
2019-05-28T00:33:57.211Z,15.93
2019-05-28T00:36:23.385Z,13.37
2019-05-28T00:38:49.566Z,14.00
2019-05-28T00:41:15.771Z,16.17
2019-05-28T00:43:41.946Z,14.07
2019-05-28T00:46:08.238Z,16.87
2019-05-28T00:48:34.506Z,24.10
2019-05-28T00:51:00.802Z,35.00
2019-05-28T00:53:27.042Z,27.13
2019-05-28T00:55:53.334Z,34.37
2019-05-28T00:58:19.708Z,24.30
2019-05-28T01:00:48.394Z,23.80
2019-05-28T01:03:14.890Z,27.30
2019-05-28T01:05:41.079Z,54.60
2019-05-28T01:08:07.242Z,33.20
2019-05-28T01:10:33.452Z,27.73
2019-05-28T01:12:59.626Z,28.20
2019-05-28T01:15:25.817Z,38.50
2019-05-28T01:17:52.176Z,32.67
2019-05-28T01:20:18.420Z,17.43
2019-05-28T01:22:44.811Z,14.57
2019-05-28T01:25:11.010Z,22.87
2019-05-28T01:27:37.186Z,19.37
2019-05-28T01:30:05.278Z,17.57
2019-05-28T01:32:31.490Z,11.10
2019-05-28T01:34:58.268Z,12.60
2019-05-28T01:37:24.444Z,13.70
2019-05-28T01:39:50.643Z,8.13
2019-05-28T01:42:16.818Z,10.33
2019-05-28T01:44:43.002Z,10.10
2019-05-28T01:47:09.283Z,6.40
2019-05-28T01:49:35.458Z,4.40
2019-05-28T01:52:01.641Z,6.00
2019-05-28T01:54:27.961Z,11.17
2019-05-28T01:56:54.134Z,10.00
2019-05-28T01:59:20.312Z,4.43
2019-05-28T02:01:46.518Z,3.87
2019-05-28T02:04:12.698Z,3.80
2019-05-28T02:06:38.882Z,5.07
2019-05-28T02:09:06.236Z,3.73
2019-05-28T02:11:32.414Z,6.03
2019-05-28T02:13:58.594Z,2.80
2019-05-28T02:16:24.813Z,6.43
2019-05-28T02:18:50.983Z,2.90
2019-05-28T02:21:17.169Z,4.00
2019-05-28T02:23:43.567Z,2.40
2019-05-28T02:26:09.758Z,7.93
2019-05-28T02:28:35.926Z,2.87
2019-05-28T02:31:02.290Z,1.93
2019-05-28T02:33:28.473Z,0.87
2019-05-28T02:35:55.280Z,3.17
2019-05-28T02:38:21.477Z,3.27
2019-05-28T02:40:47.758Z,2.63
2019-05-28T02:43:13.935Z,5.53
2019-05-28T02:45:40.142Z,6.40
2019-05-28T02:48:06.326Z,11.10
2019-05-28T02:50:36.322Z,3.67
2019-05-28T02:53:02.558Z,6.07
2019-05-28T02:55:28.743Z,8.67
2019-05-28T02:57:54.914Z,2.90
2019-05-28T03:00:21.112Z,5.27
2019-05-28T03:02:47.282Z,6.13
2019-05-28T03:05:13.961Z,5.43
2019-05-28T03:07:40.737Z,7.77
2019-05-28T03:10:06.909Z,6.63
2019-05-28T03:12:33.098Z,7.73
2019-05-28T03:14:59.686Z,5.03
2019-05-28T03:17:26.964Z,3.50
2019-05-28T03:19:53.139Z,10.27
2019-05-28T03:22:19.534Z,9.97
2019-05-28T03:24:45.702Z,14.97
2019-05-28T03:27:11.891Z,9.77
2019-05-28T03:29:38.079Z,6.70
2019-05-28T03:32:07.900Z,10.10
2019-05-28T03:34:32.226Z,12.23
2019-05-28T03:36:58.694Z,21.53
2019-05-28T03:39:25.476Z,10.63
2019-05-28T03:41:51.655Z,8.27
2019-05-28T03:44:17.854Z,20.63
2019-05-28T03:46:44.027Z,10.23
2019-05-28T03:49:10.202Z,9.90
2019-05-28T03:51:36.414Z,12.77
2019-05-28T03:54:02.682Z,13.63
2019-05-28T03:56:28.865Z,17.37
2019-05-28T03:58:55.070Z,11.37
2019-05-28T04:01:21.343Z,14.10
2019-05-28T04:03:47.508Z,10.03
2019-05-28T04:06:13.875Z,14.80
2019-05-28T04:08:40.044Z,11.90
2019-05-28T04:11:06.232Z,15.00
2019-05-28T04:13:32.570Z,11.97
2019-05-28T04:15:58.718Z,13.27
2019-05-28T04:18:24.898Z,15.00
2019-05-28T04:20:51.202Z,10.63
2019-05-28T04:23:17.369Z,19.70
2019-05-28T04:25:44.551Z,7.77
2019-05-28T04:28:10.770Z,12.30
2019-05-28T04:30:36.944Z,11.80
2019-05-28T04:33:03.115Z,18.93
2019-05-28T04:35:29.437Z,15.23
2019-05-28T04:37:56.158Z,23.97
2019-05-28T04:40:22.498Z,19.07
2019-05-28T04:42:48.710Z,18.07
2019-05-28T04:45:14.876Z,16.83
2019-05-28T04:47:41.063Z,22.37
2019-05-28T04:50:07.455Z,23.87
2019-05-28T04:52:33.650Z,28.13
2019-05-28T04:54:59.815Z,21.40
2019-05-28T04:57:26.023Z,19.60
2019-05-28T04:59:52.206Z,19.60
2019-05-28T05:02:18.686Z,27.20
2019-05-28T05:04:45.027Z,17.53
2019-05-28T05:07:11.176Z,18.23
2019-05-28T05:09:37.354Z,15.97
2019-05-28T05:12:03.591Z,16.80
2019-05-28T05:14:29.845Z,19.50
2019-05-28T05:16:56.093Z,18.63
2019-05-28T05:19:22.300Z,8.80
2019-05-28T05:21:48.476Z,8.47
2019-05-28T05:24:14.641Z,6.93
2019-05-28T05:26:40.950Z,15.03
2019-05-28T05:29:07.121Z,11.03
2019-05-28T05:31:34.255Z,11.83
2019-05-28T05:34:00.660Z,7.20
2019-05-28T05:36:26.835Z,8.60
2019-05-28T05:38:53.186Z,9.40
2019-05-28T05:41:19.486Z,14.23
2019-05-28T05:43:45.794Z,11.43
2019-05-28T05:46:11.961Z,14.87
2019-05-28T05:48:38.435Z,13.27
2019-05-28T05:51:04.607Z,10.80
2019-05-28T05:53:30.787Z,7.90
2019-05-28T05:55:57.124Z,6.27
2019-05-28T05:58:23.286Z,3.50
2019-05-28T06:00:49.465Z,6.93
2019-05-28T06:03:15.676Z,3.87
2019-05-28T06:05:41.848Z,4.63
2019-05-28T06:08:08.087Z,2.47
2019-05-28T06:10:34.395Z,2.10
2019-05-28T06:13:00.571Z,2.83
2019-05-28T06:15:26.750Z,3.17
2019-05-28T06:17:52.949Z,2.00
2019-05-28T06:20:19.457Z,2.63
2019-05-28T06:22:45.663Z,2.40
2019-05-28T06:25:11.991Z,3.50
2019-05-28T06:27:38.308Z,2.83
2019-05-28T06:30:05.689Z,7.10
2019-05-28T06:32:34.038Z,3.47
2019-05-28T06:35:00.088Z,9.20
2019-05-28T06:37:26.261Z,3.80
2019-05-28T06:39:53.325Z,11.50
2019-05-28T06:42:19.538Z,2.17
2019-05-28T06:44:45.676Z,4.70
2019-05-28T06:47:12.019Z,6.80
2019-05-28T06:49:38.154Z,4.27
2019-05-28T06:52:04.341Z,6.53
2019-05-28T06:54:30.543Z,5.70
2019-05-28T06:56:56.835Z,5.97
2019-05-28T06:59:23.003Z,5.67
2019-05-28T07:01:49.371Z,12.70
2019-05-28T07:04:29.754Z,10.23
2019-05-28T07:06:43.534Z,10.17
2019-05-28T07:09:09.939Z,18.07
2019-05-28T07:11:36.115Z,8.77
2019-05-28T07:14:02.487Z,8.43
2019-05-28T07:16:28.728Z,16.53
2019-05-28T07:18:54.876Z,15.97
2019-05-28T07:21:21.051Z,12.07
2019-05-28T07:23:47.258Z,11.73
2019-05-28T07:26:13.434Z,10.70
2019-05-28T07:28:39.637Z,11.80
2019-05-28T07:31:06.165Z,8.50
2019-05-28T07:33:35.527Z,15.37
2019-05-28T07:36:00.371Z,9.47
2019-05-28T07:38:26.895Z,7.50
2019-05-28T07:40:53.470Z,17.27
2019-05-28T07:43:19.650Z,16.23
2019-05-28T07:45:45.968Z,8.53
2019-05-28T07:48:12.135Z,12.23
2019-05-28T07:50:38.324Z,7.90
2019-05-28T07:53:04.526Z,5.60
2019-05-28T07:55:30.809Z,13.17
2019-05-28T07:57:56.994Z,9.73
2019-05-28T08:00:27.044Z,11.27
2019-05-28T08:02:53.226Z,9.10
2019-05-28T08:05:19.395Z,4.73
2019-05-28T08:07:47.657Z,9.77
2019-05-28T08:10:13.783Z,12.93
2019-05-28T08:12:40.007Z,11.13
2019-05-28T08:15:06.364Z,7.13
2019-05-28T08:17:32.544Z,7.77
2019-05-28T08:19:58.785Z,4.67
2019-05-28T08:22:40.879Z,5.50
2019-05-28T08:24:55.005Z,3.97
2019-05-28T08:27:21.783Z,11.27
2019-05-28T08:29:48.118Z,4.07
2019-05-28T08:32:14.298Z,4.00
2019-05-28T08:34:40.489Z,3.23
2019-05-28T08:37:06.881Z,4.37
2019-05-28T08:39:33.681Z,2.87
2019-05-28T08:42:00.829Z,1.50
2019-05-28T08:44:27.130Z,2.70
2019-05-28T08:46:53.417Z,2.53
2019-05-28T08:49:19.595Z,3.10
2019-05-28T08:51:45.986Z,4.43
2019-05-28T08:54:12.345Z,5.97
2019-05-28T08:56:38.750Z,3.60
2019-05-28T08:59:04.963Z,3.30
2019-05-28T09:01:31.749Z,8.50
2019-05-28T09:03:58.063Z,2.73
2019-05-28T09:06:27.092Z,4.60
2019-05-28T09:08:52.283Z,4.47
2019-05-28T09:11:18.710Z,5.23
2019-05-28T09:13:44.920Z,4.17
2019-05-28T09:16:11.150Z,3.53
2019-05-28T09:18:37.274Z,3.53
2019-05-28T09:21:03.670Z,3.70
2019-05-28T09:23:30.009Z,3.13
2019-05-28T09:25:56.175Z,2.20
2019-05-28T09:28:29.794Z,5.43
2019-05-28T09:30:50.487Z,4.77
2019-05-28T09:33:16.807Z,1.23
2019-05-28T09:35:46.689Z,1.57
2019-05-28T09:38:11.028Z,6.70
2019-05-28T09:40:49.048Z,1.83
2019-05-28T09:43:05.450Z,4.33
2019-05-28T09:45:31.623Z,3.80
2019-05-28T09:47:57.795Z,2.87
2019-05-28T09:50:30.558Z,8.23
2019-05-28T09:52:54.967Z,1.97
2019-05-28T09:55:20.291Z,3.47
2019-05-28T09:57:48.071Z,1.90
2019-05-28T10:00:18.304Z,10.67
2019-05-28T10:02:44.655Z,4.13
2019-05-28T10:05:11.108Z,5.80
2019-05-28T10:07:37.280Z,4.93
2019-05-28T10:10:06.170Z,4.53
2019-05-28T10:12:32.536Z,4.27
2019-05-28T10:14:58.707Z,4.47
2019-05-28T10:17:26.182Z,3.90
2019-05-28T10:19:52.492Z,2.90
2019-05-28T10:22:18.685Z,3.87
2019-05-28T10:24:44.990Z,1.33
2019-05-28T10:27:11.162Z,6.33
2019-05-28T10:29:37.327Z,1.73
2019-05-28T10:32:03.674Z,4.37
2019-05-28T10:34:30.013Z,4.97
2019-05-28T10:36:56.186Z,6.60
2019-05-28T10:39:22.361Z,4.80
2019-05-28T10:41:50.025Z,3.67
2019-05-28T10:44:16.518Z,5.87
2019-05-28T10:46:42.693Z,5.90
2019-05-28T10:49:09.027Z,4.70
2019-05-28T10:51:35.214Z,4.33
2019-05-28T10:54:01.394Z,3.50
2019-05-28T10:56:27.597Z,6.03
2019-05-28T10:58:53.770Z,9.50
2019-05-28T11:01:20.055Z,4.90
2019-05-28T11:03:47.209Z,31.87
2019-05-28T11:06:13.631Z,6.57
2019-05-28T11:08:39.811Z,6.80
2019-05-28T11:11:06.024Z,3.73
2019-05-28T11:13:32.202Z,5.70
2019-05-28T11:15:58.470Z,8.13
2019-05-28T11:18:24.674Z,4.50
2019-05-28T11:20:50.855Z,5.03
2019-05-28T11:23:17.239Z,19.10
2019-05-28T11:25:43.571Z,7.57
2019-05-28T11:28:09.747Z,2.07
2019-05-28T11:30:35.926Z,5.67
2019-05-28T11:33:02.263Z,5.60
2019-05-28T11:35:28.466Z,4.17
2019-05-28T11:37:54.918Z,3.27
2019-05-28T11:40:21.245Z,4.40
2019-05-28T11:42:47.520Z,5.77
2019-05-28T11:45:17.226Z,4.20
2019-05-28T11:47:44.040Z,5.40
2019-05-28T11:50:10.317Z,2.83
2019-05-28T11:52:38.413Z,2.67
2019-05-28T11:55:07.898Z,2.67
2019-05-28T11:57:34.079Z,3.87
2019-05-28T12:00:00.513Z,3.00
2019-05-28T12:02:26.711Z,2.50
2019-05-28T12:04:54.894Z,4.13
2019-05-28T12:07:25.938Z,4.03
2019-05-28T12:09:49.088Z,2.47
2019-05-28T12:12:15.377Z,1.10
2019-05-28T12:14:41.539Z,2.97
2019-05-28T12:17:07.874Z,2.83
2019-05-28T12:19:34.046Z,3.00
2019-05-28T12:22:00.220Z,1.53
2019-05-28T12:24:28.587Z,6.17
2019-05-28T12:26:54.482Z,4.73
2019-05-28T12:29:20.963Z,1.23
2019-05-28T12:31:47.293Z,4.93
2019-05-28T12:34:13.465Z,3.70
2019-05-28T12:36:39.643Z,3.03
2019-05-28T12:39:08.012Z,5.00
2019-05-28T12:41:34.239Z,8.80
2019-05-28T12:44:00.414Z,5.20
2019-05-28T12:46:27.110Z,1.33
2019-05-28T12:48:53.332Z,9.50
2019-05-28T12:51:19.475Z,2.83
2019-05-28T12:53:50.876Z,4.97
2019-05-28T12:56:13.896Z,1.63
2019-05-28T12:58:42.901Z,2.03
2019-05-28T13:01:08.399Z,10.40
2019-05-28T13:03:34.603Z,6.20
2019-05-28T13:06:00.767Z,11.20
2019-05-28T13:08:27.259Z,1.33
2019-05-28T13:10:53.435Z,1.33
2019-05-28T13:13:19.614Z,3.37
2019-05-28T13:15:45.804Z,2.17
2019-05-28T13:18:11.986Z,4.37
2019-05-28T13:20:38.146Z,0.73
2019-05-28T13:23:04.652Z,1.63
2019-05-28T13:25:30.829Z,2.10
2019-05-28T13:27:57.002Z,4.13
2019-05-28T13:30:23.208Z,4.07
2019-05-28T13:32:49.574Z,6.93
2019-05-28T13:35:16.383Z,5.43
2019-05-28T13:37:42.699Z,2.43
2019-05-28T13:40:09.570Z,3.80
2019-05-28T13:42:35.734Z,4.00
2019-05-28T13:45:04.993Z,3.83
2019-05-28T13:47:33.948Z,2.43
2019-05-28T13:49:59.901Z,11.17
2019-05-28T13:52:26.101Z,3.10
2019-05-28T13:54:52.343Z,2.30
2019-05-28T13:57:18.455Z,1.77
2019-05-28T13:59:44.647Z,3.23
2019-05-28T14:02:10.931Z,2.63
2019-05-28T14:04:37.109Z,2.57
2019-05-28T14:07:03.344Z,4.00
2019-05-28T14:09:29.502Z,3.87
2019-05-28T14:11:55.683Z,2.27
2019-05-28T14:14:21.987Z,5.47
2019-05-28T14:16:48.165Z,3.73
2019-05-28T14:19:14.340Z,2.63
2019-05-28T14:21:40.547Z,2.13
2019-05-28T14:24:06.715Z,3.47
2019-05-28T14:26:32.891Z,2.07
2019-05-28T14:28:59.092Z,4.13
2019-05-28T14:31:25.267Z,5.70
2019-05-28T14:33:51.438Z,3.67
2019-05-28T14:36:17.634Z,6.33
2019-05-28T14:38:43.802Z,4.17
2019-05-28T14:41:10.025Z,2.23
2019-05-28T14:43:36.248Z,13.27
2019-05-28T14:46:03.022Z,2.30
2019-05-28T14:48:29.491Z,2.90
2019-05-28T14:50:55.889Z,5.03
2019-05-28T14:53:22.071Z,8.23
2019-05-28T14:55:48.458Z,1.97
2019-05-28T14:58:14.670Z,9.10
2019-05-28T15:00:41.004Z,1.37
2019-05-28T15:03:07.127Z,2.43
2019-05-28T15:05:33.665Z,1.97
2019-05-28T15:07:59.862Z,2.10
2019-05-28T15:10:26.037Z,2.73
2019-05-28T15:12:52.284Z,3.83
2019-05-28T15:15:34.475Z,0.83
2019-05-28T15:17:46.536Z,4.13
2019-05-28T15:20:13.233Z,2.57
2019-05-28T15:22:39.398Z,1.97
2019-05-28T15:25:06.082Z,1.67
2019-05-28T15:27:32.399Z,2.83
2019-05-28T15:29:58.604Z,2.07
2019-05-28T15:32:24.834Z,2.00
2019-05-28T15:34:51.079Z,3.43
2019-05-28T15:37:17.411Z,1.90
2019-05-28T15:39:43.622Z,2.43
2019-05-28T15:42:19.248Z,1.03
2019-05-28T15:44:37.858Z,2.13
2019-05-28T15:47:04.024Z,1.60
2019-05-28T15:49:31.070Z,1.00
2019-05-28T15:52:07.314Z,1.70
2019-05-28T15:54:25.447Z,3.40
2019-05-28T15:56:51.843Z,3.97
2019-05-28T15:59:18.010Z,1.80
2019-05-28T16:01:44.190Z,1.93
2019-05-28T16:04:10.383Z,3.87
2019-05-28T16:06:36.562Z,0.70
2019-05-28T16:09:05.749Z,3.37
2019-05-28T16:11:31.951Z,2.77
2019-05-28T16:13:58.139Z,1.77
2019-05-28T16:16:24.304Z,3.97
2019-05-28T16:18:50.692Z,4.20
2019-05-28T16:21:16.972Z,5.30
2019-05-28T16:23:43.140Z,7.57
2019-05-28T16:26:09.362Z,9.37
2019-05-28T16:28:35.538Z,4.67
2019-05-28T16:31:12.561Z,6.60
2019-05-28T16:33:29.743Z,4.23
2019-05-28T16:35:55.997Z,5.97
2019-05-28T16:38:22.175Z,6.30
2019-05-28T16:40:48.371Z,4.33
2019-05-28T16:43:14.546Z,6.03
2019-05-28T16:45:40.715Z,10.23
2019-05-28T16:48:07.035Z,3.80
2019-05-28T16:50:33.570Z,6.20
2019-05-28T16:52:59.755Z,4.80
2019-05-28T16:55:25.954Z,4.53
2019-05-28T16:57:52.727Z,5.60
2019-05-28T17:00:19.006Z,4.80
2019-05-28T17:02:45.215Z,8.50
2019-05-28T17:05:11.698Z,8.13
2019-05-28T17:07:37.993Z,9.53
2019-05-28T17:10:04.895Z,3.13
2019-05-28T17:12:31.203Z,8.20
2019-05-28T17:14:57.558Z,5.33
2019-05-28T17:17:23.758Z,9.17
2019-05-28T17:19:50.050Z,7.07
2019-05-28T17:22:16.254Z,5.17
2019-05-28T17:24:42.441Z,2.77
2019-05-28T17:27:08.608Z,10.80
2019-05-28T17:29:34.882Z,3.90
2019-05-28T17:32:01.078Z,4.67
2019-05-28T17:34:27.248Z,7.60
2019-05-28T17:36:53.428Z,5.27
2019-05-28T17:39:19.756Z,3.43
2019-05-28T17:41:45.977Z,7.03
2019-05-28T17:44:12.107Z,4.03
2019-05-28T17:46:38.317Z,4.17
2019-05-28T17:49:04.508Z,3.17
2019-05-28T17:51:30.874Z,2.40
2019-05-28T17:53:57.075Z,7.43
2019-05-28T17:56:23.467Z,5.80
2019-05-28T17:58:49.922Z,8.20
2019-05-28T18:01:16.299Z,6.47
2019-05-28T18:03:42.490Z,1.80
2019-05-28T18:06:08.658Z,4.67
2019-05-28T18:08:35.098Z,8.83
2019-05-28T18:11:04.062Z,5.10
2019-05-28T18:13:29.262Z,6.07
2019-05-28T18:15:55.637Z,5.67
2019-05-28T18:18:21.912Z,3.60
2019-05-28T18:20:48.082Z,3.67
2019-05-28T18:23:14.286Z,10.13
2019-05-28T18:25:40.563Z,3.00
2019-05-28T18:28:07.792Z,5.83
2019-05-28T18:30:33.991Z,7.17
2019-05-28T18:33:00.164Z,3.53
2019-05-28T18:35:26.338Z,7.63
2019-05-28T18:38:02.912Z,9.43
2019-05-28T18:40:20.531Z,6.37
2019-05-28T18:42:46.710Z,9.43
2019-05-28T18:45:13.114Z,5.37
2019-05-28T18:47:39.732Z,6.17
2019-05-28T18:50:07.466Z,4.73
2019-05-28T18:52:35.233Z,5.03
2019-05-28T18:55:01.522Z,7.90
2019-05-28T18:57:27.703Z,6.03
2019-05-28T18:59:53.976Z,4.97
2019-05-28T19:02:20.138Z,5.60
2019-05-28T19:04:46.315Z,7.60
2019-05-28T19:07:12.584Z,6.87
2019-05-28T19:09:38.803Z,4.83
2019-05-28T19:12:04.990Z,6.90
2019-05-28T19:14:31.294Z,5.93
2019-05-28T19:16:57.477Z,6.33
2019-05-28T19:19:23.650Z,5.00
2019-05-28T19:21:49.850Z,4.73
2019-05-28T19:24:16.130Z,5.87
2019-05-28T19:26:42.299Z,7.33
2019-05-28T19:29:08.623Z,8.87
2019-05-28T19:31:34.802Z,2.57
2019-05-28T19:34:01.684Z,2.33
2019-05-28T19:36:27.899Z,6.97
2019-05-28T19:38:54.188Z,5.07
2019-05-28T19:41:20.351Z,4.77
2019-05-28T19:43:46.567Z,4.27
2019-05-28T19:46:12.775Z,3.87
2019-05-28T19:48:38.934Z,7.33
2019-05-28T19:51:05.130Z,7.60
2019-05-28T19:53:32.670Z,7.23
2019-05-28T19:55:58.848Z,8.07
2019-05-28T19:58:25.058Z,6.47
2019-05-28T20:00:51.340Z,5.97
2019-05-28T20:03:17.631Z,3.80
2019-05-28T20:05:44.083Z,6.97
2019-05-28T20:08:10.256Z,8.90
2019-05-28T20:10:36.429Z,4.17
2019-05-28T20:13:02.630Z,6.00
2019-05-28T20:15:29.124Z,13.53
2019-05-28T20:17:56.536Z,4.17
2019-05-28T20:20:23.210Z,3.90
2019-05-28T20:22:50.112Z,6.83
2019-05-28T20:25:16.870Z,7.70
2019-05-28T20:27:43.165Z,8.90
2019-05-28T20:30:09.755Z,6.73
2019-05-28T20:32:35.931Z,4.70
2019-05-28T20:35:05.736Z,5.40
2019-05-28T20:37:31.915Z,5.07
2019-05-28T20:39:58.099Z,2.23
2019-05-28T20:42:27.338Z,12.30
2019-05-28T20:44:52.394Z,11.80
2019-05-28T20:47:18.563Z,4.93
2019-05-28T20:49:44.754Z,5.70
2019-05-28T20:52:10.930Z,6.63
2019-05-28T20:54:37.471Z,9.57
2019-05-28T20:57:03.672Z,2.53
2019-05-28T20:59:30.818Z,2.40
2019-05-28T21:01:58.079Z,7.50
2019-05-28T21:04:24.423Z,6.30
2019-05-28T21:06:50.606Z,4.60
2019-05-28T21:09:16.778Z,4.87
2019-05-28T21:11:42.991Z,5.37
2019-05-28T21:14:09.167Z,5.20
2019-05-28T21:16:35.344Z,5.03
2019-05-28T21:19:01.890Z,5.07
2019-05-28T21:21:28.062Z,2.67
2019-05-28T21:23:54.235Z,5.27
2019-05-28T21:26:20.557Z,3.80
2019-05-28T21:28:46.746Z,7.13
2019-05-28T21:31:13.031Z,4.37
2019-05-28T21:33:39.226Z,4.93
2019-05-28T21:36:05.570Z,5.30
2019-05-28T21:38:31.693Z,6.67
2019-05-28T21:40:57.898Z,6.07
2019-05-28T21:43:24.066Z,13.63
2019-05-28T21:45:50.238Z,5.00
2019-05-28T21:48:16.727Z,7.07
2019-05-28T21:50:42.907Z,4.80
2019-05-28T21:53:09.074Z,2.77
2019-05-28T21:55:36.006Z,1.90
2019-05-28T21:58:02.204Z,9.70
2019-05-28T22:00:34.113Z,3.27
2019-05-28T22:03:00.653Z,5.60
2019-05-28T22:05:26.901Z,13.73
2019-05-28T22:07:53.080Z,4.77
2019-05-28T22:10:19.291Z,4.13
2019-05-28T22:12:45.457Z,7.00
2019-05-28T22:15:12.339Z,4.23
2019-05-28T22:17:38.545Z,4.57
2019-05-28T22:20:06.831Z,3.50
2019-05-28T22:22:33.003Z,3.43
2019-05-28T22:25:00.408Z,2.40
2019-05-28T22:27:26.805Z,3.07
2019-05-28T22:29:54.049Z,4.43
2019-05-28T22:32:20.501Z,6.13
2019-05-28T22:34:46.672Z,6.87
2019-05-28T22:37:12.850Z,8.43
2019-05-28T22:39:39.138Z,2.67
2019-05-28T22:42:05.788Z,6.33
2019-05-28T22:44:32.082Z,3.13
2019-05-28T22:46:59.050Z,3.90
2019-05-28T22:49:25.350Z,4.40
2019-05-28T22:51:51.558Z,2.00
2019-05-28T22:54:17.886Z,1.67
2019-05-28T22:56:44.813Z,4.57
2019-05-28T22:59:10.939Z,2.63
2019-05-28T23:01:37.354Z,3.43
2019-05-28T23:04:03.538Z,5.80
2019-05-28T23:06:29.727Z,1.67
2019-05-28T23:08:55.928Z,4.70
2019-05-28T23:11:22.103Z,4.30
2019-05-28T23:13:48.282Z,1.90
2019-05-28T23:16:14.657Z,7.13
2019-05-28T23:18:40.939Z,4.87
2019-05-28T23:21:07.120Z,5.73
2019-05-28T23:23:33.432Z,3.00
2019-05-28T23:25:59.598Z,2.63
2019-05-28T23:28:25.776Z,3.23
2019-05-28T23:30:52.059Z,6.20
2019-05-28T23:33:18.251Z,3.50
2019-05-28T23:35:44.416Z,3.13
2019-05-28T23:38:11.214Z,3.63
2019-05-28T23:40:37.590Z,4.10
2019-05-28T23:43:03.866Z,3.63
2019-05-28T23:45:30.397Z,3.63
2019-05-28T23:47:56.566Z,4.30
2019-05-28T23:50:22.738Z,6.00
2019-05-28T23:52:49.080Z,3.27
2019-05-28T23:55:15.214Z,2.57
2019-05-28T23:57:41.662Z,2.73
